createdAt,value
2017-08-10T00:00:35.255Z,18.90
2017-08-10T00:03:02.805Z,18.90
2017-08-10T00:05:30.408Z,18.80
2017-08-10T00:07:57.949Z,18.70
2017-08-10T00:10:25.506Z,18.70
2017-08-10T00:12:53.095Z,18.60
2017-08-10T00:15:20.934Z,18.60
2017-08-10T00:17:48.481Z,18.60
2017-08-10T00:20:16.121Z,18.60
2017-08-10T00:22:43.673Z,18.50
2017-08-10T00:25:11.234Z,18.50
2017-08-10T00:27:38.845Z,18.50
2017-08-10T00:30:06.393Z,18.50
2017-08-10T00:32:33.947Z,18.50
2017-08-10T00:35:01.517Z,18.50
2017-08-10T00:37:29.068Z,18.50
2017-08-10T00:39:56.621Z,18.40
2017-08-10T00:42:24.245Z,18.40
2017-08-10T00:44:52.573Z,18.30
2017-08-10T00:47:20.142Z,18.30
2017-08-10T00:49:47.772Z,18.40
2017-08-10T00:52:15.870Z,18.40
2017-08-10T00:54:43.422Z,18.40
2017-08-10T00:57:11.001Z,18.40
2017-08-10T00:59:38.551Z,18.40
2017-08-10T01:02:06.096Z,18.40
2017-08-10T01:04:33.667Z,18.30
2017-08-10T01:07:01.228Z,18.20
2017-08-10T01:09:28.782Z,18.10
2017-08-10T01:11:56.373Z,18.20
2017-08-10T01:14:23.912Z,18.30
2017-08-10T01:16:52.009Z,18.40
2017-08-10T01:19:19.590Z,18.40
2017-08-10T01:21:47.124Z,18.50
2017-08-10T01:24:14.676Z,18.50
2017-08-10T01:26:42.458Z,18.60
2017-08-10T01:29:10.802Z,18.70
2017-08-10T01:31:38.341Z,18.70
2017-08-10T01:34:05.937Z,18.80
2017-08-10T01:36:33.476Z,18.80
2017-08-10T01:39:01.031Z,18.80
2017-08-10T01:41:28.637Z,18.80
2017-08-10T01:43:56.189Z,18.90
2017-08-10T01:46:23.774Z,18.90
2017-08-10T01:48:51.382Z,18.80
2017-08-10T01:51:18.938Z,18.80
2017-08-10T01:53:46.477Z,18.80
2017-08-10T01:56:14.084Z,18.70
2017-08-10T01:58:41.626Z,18.60
2017-08-10T02:01:09.171Z,18.60
2017-08-10T02:03:36.785Z,18.60
2017-08-10T02:06:05.098Z,18.50
2017-08-10T02:08:32.645Z,18.50
2017-08-10T02:11:00.226Z,18.50
2017-08-10T02:13:27.772Z,18.50
2017-08-10T02:15:55.322Z,18.50
2017-08-10T02:18:23.396Z,18.50
2017-08-10T02:20:50.955Z,18.30
2017-08-10T02:23:18.502Z,18.10
2017-08-10T02:25:46.073Z,18.10
2017-08-10T02:28:13.631Z,18.00
2017-08-10T02:30:41.184Z,18.00
2017-08-10T02:33:08.809Z,17.90
2017-08-10T02:35:36.356Z,17.90
2017-08-10T02:38:03.901Z,17.80
2017-08-10T02:40:31.501Z,17.80
2017-08-10T02:42:59.046Z,17.70
2017-08-10T02:45:26.601Z,17.70
2017-08-10T02:47:54.185Z,17.60
2017-08-10T02:50:21.733Z,17.60
2017-08-10T02:52:49.286Z,17.50
2017-08-10T02:55:16.877Z,17.50
2017-08-10T02:57:44.475Z,17.40
2017-08-10T03:00:12.098Z,17.40
2017-08-10T03:02:39.828Z,17.40
2017-08-10T03:05:07.383Z,17.40
2017-08-10T03:07:34.925Z,17.30
2017-08-10T03:10:02.496Z,17.20
2017-08-10T03:12:30.049Z,17.20
2017-08-10T03:14:57.600Z,17.20
2017-08-10T03:17:25.183Z,17.10
2017-08-10T03:19:53.428Z,17.10
2017-08-10T03:22:20.976Z,17.00
2017-08-10T03:24:48.605Z,17.00
2017-08-10T03:27:16.157Z,16.90
2017-08-10T03:29:43.701Z,16.90
2017-08-10T03:32:11.272Z,17.00
2017-08-10T03:34:38.820Z,17.00
2017-08-10T03:37:06.374Z,17.00
2017-08-10T03:39:33.998Z,16.80
2017-08-10T03:42:01.562Z,16.80
2017-08-10T03:44:29.122Z,16.80
2017-08-10T03:46:56.742Z,16.70
2017-08-10T03:49:24.290Z,16.70
2017-08-10T03:51:51.842Z,16.70
2017-08-10T03:54:19.417Z,16.60
2017-08-10T03:56:46.964Z,16.60
2017-08-10T03:59:14.505Z,16.70
2017-08-10T04:01:42.088Z,16.70
2017-08-10T04:04:09.637Z,16.70
2017-08-10T04:06:37.190Z,16.70
2017-08-10T04:09:04.826Z,16.60
2017-08-10T04:11:32.378Z,16.50
2017-08-10T04:13:59.942Z,16.50
2017-08-10T04:16:27.521Z,16.50
2017-08-10T04:18:55.068Z,16.50
2017-08-10T04:21:22.940Z,16.40
2017-08-10T04:23:50.521Z,16.40
2017-08-10T04:26:18.065Z,16.30
2017-08-10T04:28:45.622Z,16.20
2017-08-10T04:31:13.222Z,16.20
2017-08-10T04:33:40.765Z,16.30
2017-08-10T04:36:08.306Z,16.40
2017-08-10T04:38:35.884Z,16.50
2017-08-10T04:41:03.429Z,16.50
2017-08-10T04:43:30.981Z,16.60
2017-08-10T04:45:58.578Z,16.60
2017-08-10T04:48:26.122Z,16.70
2017-08-10T04:50:53.668Z,16.70
2017-08-10T04:53:21.285Z,16.70
2017-08-10T04:55:48.824Z,16.80
2017-08-10T04:58:16.370Z,16.80
2017-08-10T05:00:43.952Z,16.90
2017-08-10T05:03:11.502Z,17.00
2017-08-10T05:05:39.066Z,17.20
2017-08-10T05:08:06.647Z,17.20
2017-08-10T05:10:34.201Z,17.30
2017-08-10T05:13:01.740Z,17.40
2017-08-10T05:15:29.358Z,17.40
2017-08-10T05:17:56.978Z,17.60
2017-08-10T05:20:24.532Z,17.80
2017-08-10T05:22:52.680Z,17.80
2017-08-10T05:25:20.261Z,17.90
2017-08-10T05:27:48.045Z,18.00
2017-08-10T05:30:15.645Z,18.20
2017-08-10T05:32:43.188Z,18.50
2017-08-10T05:35:10.748Z,18.60
2017-08-10T05:37:38.358Z,18.70
2017-08-10T05:40:05.901Z,18.70
2017-08-10T05:42:33.449Z,18.70
2017-08-10T05:45:01.034Z,18.60
2017-08-10T05:47:28.575Z,18.50
2017-08-10T05:49:56.129Z,18.30
2017-08-10T05:52:23.745Z,18.30
2017-08-10T05:54:51.293Z,18.40
2017-08-10T05:57:18.838Z,18.50
2017-08-10T05:59:46.449Z,18.60
2017-08-10T06:02:14.034Z,18.70
2017-08-10T06:04:41.585Z,18.90
2017-08-10T06:07:09.158Z,19.20
2017-08-10T06:09:36.709Z,19.40
2017-08-10T06:12:04.265Z,19.50
2017-08-10T06:14:31.838Z,19.90
2017-08-10T06:16:59.380Z,20.30
2017-08-10T06:19:26.961Z,20.80
2017-08-10T06:21:54.556Z,21.40
2017-08-10T06:24:22.546Z,21.50
2017-08-10T06:26:50.090Z,21.60
2017-08-10T06:29:17.662Z,21.70
2017-08-10T06:31:45.205Z,21.80
2017-08-10T06:34:12.805Z,22.10
2017-08-10T06:36:40.389Z,22.30
2017-08-10T06:39:07.941Z,22.40
2017-08-10T06:41:35.503Z,22.60
2017-08-10T06:44:03.146Z,22.30
2017-08-10T06:46:30.706Z,22.30
2017-08-10T06:48:58.282Z,22.30
2017-08-10T06:51:25.858Z,22.50
2017-08-10T06:53:53.409Z,22.30
2017-08-10T06:56:20.952Z,22.20
2017-08-10T06:58:52.099Z,22.00
2017-08-10T07:01:19.653Z,21.80
2017-08-10T07:03:47.211Z,21.90
2017-08-10T07:06:14.817Z,21.80
2017-08-10T07:08:42.359Z,21.80
2017-08-10T07:11:09.904Z,21.80
2017-08-10T07:13:37.474Z,21.70
2017-08-10T07:16:05.016Z,21.50
2017-08-10T07:18:32.571Z,21.50
2017-08-10T07:21:00.158Z,21.30
2017-08-10T07:23:27.705Z,21.20
2017-08-10T07:25:55.466Z,21.20
2017-08-10T07:28:23.068Z,21.10
2017-08-10T07:30:50.620Z,21.10
2017-08-10T07:33:18.178Z,21.00
2017-08-10T07:35:45.749Z,21.00
2017-08-10T07:38:13.302Z,20.80
2017-08-10T07:40:40.849Z,20.60
2017-08-10T07:43:08.426Z,20.50
2017-08-10T07:45:35.965Z,20.50
2017-08-10T07:48:03.513Z,20.40
2017-08-10T07:50:31.113Z,20.50
2017-08-10T07:52:58.662Z,20.60
2017-08-10T07:55:26.205Z,20.70
2017-08-10T07:57:53.783Z,20.70
2017-08-10T08:00:21.323Z,20.70
2017-08-10T08:02:48.873Z,20.70
2017-08-10T08:05:16.481Z,20.60
2017-08-10T08:07:44.034Z,20.50
2017-08-10T08:10:11.577Z,20.40
2017-08-10T08:12:39.196Z,20.60
2017-08-10T08:15:06.738Z,20.60
2017-08-10T08:17:34.289Z,20.60
2017-08-10T08:20:01.869Z,20.60
2017-08-10T08:22:29.408Z,20.60
2017-08-10T08:24:56.954Z,20.80
2017-08-10T08:27:24.798Z,20.80
2017-08-10T08:29:52.372Z,20.90
2017-08-10T08:32:19.913Z,20.90
2017-08-10T08:34:47.519Z,21.00
2017-08-10T08:37:15.060Z,21.10
2017-08-10T08:39:42.606Z,21.10
2017-08-10T08:42:12.985Z,21.20
2017-08-10T08:44:40.538Z,21.20
2017-08-10T08:47:11.080Z,21.00
2017-08-10T08:49:38.717Z,20.90
2017-08-10T08:52:06.289Z,20.80
2017-08-10T08:54:33.858Z,20.80
2017-08-10T08:57:01.474Z,20.90
2017-08-10T08:59:29.033Z,21.00
2017-08-10T09:01:56.591Z,21.00
2017-08-10T09:04:24.198Z,20.90
2017-08-10T09:06:51.762Z,21.00
2017-08-10T09:09:21.782Z,21.10
2017-08-10T09:11:49.471Z,21.00
2017-08-10T09:14:17.034Z,20.90
2017-08-10T09:16:44.597Z,20.80
2017-08-10T09:19:12.509Z,20.60
2017-08-10T09:21:40.082Z,20.60
2017-08-10T09:24:07.638Z,20.70
2017-08-10T09:26:36.036Z,20.80
2017-08-10T09:29:04.009Z,20.80
2017-08-10T09:31:31.559Z,20.70
2017-08-10T09:33:59.897Z,20.40
2017-08-10T09:36:27.450Z,20.40
2017-08-10T09:38:55.002Z,20.40
2017-08-10T09:41:22.617Z,20.40
2017-08-10T09:43:50.160Z,20.20
2017-08-10T09:46:17.709Z,20.10
2017-08-10T09:48:45.290Z,20.10
2017-08-10T09:51:12.861Z,20.10
2017-08-10T09:53:40.409Z,19.90
2017-08-10T09:56:08.006Z,19.90
2017-08-10T09:58:35.562Z,19.90
2017-08-10T10:01:03.121Z,20.00
2017-08-10T10:03:30.890Z,20.10
2017-08-10T10:05:58.440Z,20.10
2017-08-10T10:08:25.985Z,20.20
2017-08-10T10:10:53.561Z,20.20
2017-08-10T10:13:21.110Z,20.40
2017-08-10T10:15:48.661Z,20.70
2017-08-10T10:18:16.274Z,20.80
2017-08-10T10:20:43.956Z,20.70
2017-08-10T10:23:11.496Z,20.60
2017-08-10T10:25:39.114Z,20.60
2017-08-10T10:28:06.666Z,20.60
2017-08-10T10:30:34.965Z,20.60
2017-08-10T10:33:02.541Z,20.70
2017-08-10T10:35:30.086Z,20.50
2017-08-10T10:37:57.709Z,20.50
2017-08-10T10:40:25.285Z,20.40
2017-08-10T10:42:52.852Z,20.50
2017-08-10T10:45:21.904Z,20.60
2017-08-10T10:47:49.514Z,20.70
2017-08-10T10:50:17.073Z,20.70
2017-08-10T10:52:44.641Z,20.70
2017-08-10T10:55:14.452Z,20.60
2017-08-10T10:57:42.048Z,20.50
2017-08-10T11:00:09.605Z,20.30
2017-08-10T11:02:38.510Z,20.00
2017-08-10T11:05:06.062Z,20.00
2017-08-10T11:07:33.610Z,20.10
2017-08-10T11:10:01.221Z,20.10
2017-08-10T11:12:29.534Z,19.90
2017-08-10T11:14:57.080Z,19.90
2017-08-10T11:17:24.669Z,19.90
2017-08-10T11:19:52.218Z,19.90
2017-08-10T11:22:19.777Z,19.80
2017-08-10T11:24:47.380Z,19.90
2017-08-10T11:27:14.921Z,19.90
2017-08-10T11:29:42.550Z,19.90
2017-08-10T11:32:10.684Z,19.90
2017-08-10T11:34:38.235Z,19.90
2017-08-10T11:37:06.561Z,19.80
2017-08-10T11:39:34.145Z,19.80
2017-08-10T11:42:01.697Z,19.80
2017-08-10T11:44:29.257Z,19.90
2017-08-10T11:46:57.755Z,20.00
2017-08-10T11:49:25.334Z,20.00
2017-08-10T11:51:52.915Z,20.10
2017-08-10T11:54:24.064Z,20.10
2017-08-10T11:56:51.617Z,20.10
2017-08-10T11:59:19.166Z,20.10
2017-08-10T12:01:46.761Z,20.10
2017-08-10T12:04:14.305Z,20.20
2017-08-10T12:06:41.849Z,20.30
2017-08-10T12:09:09.416Z,20.40
2017-08-10T12:11:37.729Z,20.30
2017-08-10T12:14:05.273Z,20.30
2017-08-10T12:16:33.323Z,20.20
2017-08-10T12:19:01.634Z,20.00
2017-08-10T12:21:29.181Z,20.00
2017-08-10T12:23:56.757Z,20.00
2017-08-10T12:26:24.330Z,20.20
2017-08-10T12:28:51.874Z,20.20
2017-08-10T12:31:19.481Z,20.20
2017-08-10T12:33:47.594Z,20.30
2017-08-10T12:36:15.137Z,20.20
2017-08-10T12:38:43.506Z,20.00
2017-08-10T12:41:11.840Z,20.00
2017-08-10T12:43:39.388Z,20.00
2017-08-10T12:46:06.977Z,19.90
2017-08-10T12:48:34.536Z,19.90
2017-08-10T12:51:02.126Z,19.90
2017-08-10T12:53:29.712Z,19.90
2017-08-10T12:55:57.273Z,19.90
2017-08-10T12:58:24.817Z,19.80
2017-08-10T13:00:52.421Z,19.90
2017-08-10T13:03:19.969Z,19.90
2017-08-10T13:05:47.524Z,19.90
2017-08-10T13:08:15.101Z,19.90
2017-08-10T13:10:42.648Z,19.90
2017-08-10T13:13:10.189Z,19.80
2017-08-10T13:15:37.770Z,19.70
2017-08-10T13:18:05.329Z,19.70
2017-08-10T13:20:32.872Z,19.70
2017-08-10T13:23:00.657Z,19.60
2017-08-10T13:25:28.205Z,19.60
2017-08-10T13:27:55.748Z,19.30
2017-08-10T13:30:23.322Z,19.10
2017-08-10T13:32:50.878Z,19.00
2017-08-10T13:35:18.659Z,19.00
2017-08-10T13:37:46.274Z,19.00
2017-08-10T13:40:13.833Z,19.10
2017-08-10T13:42:41.417Z,19.10
2017-08-10T13:45:09.006Z,19.20
2017-08-10T13:47:36.561Z,18.90
2017-08-10T13:50:04.115Z,18.80
2017-08-10T13:52:31.688Z,18.70
2017-08-10T13:54:59.240Z,18.60
2017-08-10T13:57:26.785Z,18.50
2017-08-10T13:59:54.366Z,18.50
2017-08-10T14:02:22.114Z,18.50
2017-08-10T14:04:49.797Z,18.50
2017-08-10T14:07:17.461Z,18.40
2017-08-10T14:09:45.012Z,18.30
2017-08-10T14:12:12.576Z,18.30
2017-08-10T14:14:40.168Z,18.10
2017-08-10T14:17:07.781Z,18.10
2017-08-10T14:19:35.363Z,17.80
2017-08-10T14:22:02.936Z,17.70
2017-08-10T14:24:30.490Z,17.60
2017-08-10T14:26:58.057Z,17.50
2017-08-10T14:29:25.754Z,17.40
2017-08-10T14:31:53.338Z,17.40
2017-08-10T14:34:20.889Z,17.40
2017-08-10T14:36:48.789Z,17.20
2017-08-10T14:39:16.333Z,17.30
2017-08-10T14:41:43.897Z,17.30
2017-08-10T14:44:11.525Z,17.40
2017-08-10T14:46:39.845Z,17.30
2017-08-10T14:49:07.422Z,17.30
2017-08-10T14:51:35.041Z,17.30
2017-08-10T14:54:02.680Z,17.20
2017-08-10T14:56:30.225Z,17.30
2017-08-10T14:58:57.822Z,17.30
2017-08-10T15:01:25.413Z,17.30
2017-08-10T15:03:53.033Z,17.30
2017-08-10T15:06:21.373Z,17.30
2017-08-10T15:08:48.961Z,17.30
2017-08-10T15:11:16.599Z,17.30
2017-08-10T15:13:44.237Z,17.20
2017-08-10T15:16:11.854Z,17.20
2017-08-10T15:18:39.403Z,17.20
2017-08-10T15:21:06.985Z,17.20
2017-08-10T15:23:34.560Z,17.30
2017-08-10T15:26:02.131Z,17.10
2017-08-10T15:28:30.059Z,17.10
2017-08-10T15:30:57.883Z,17.00
2017-08-10T15:33:25.673Z,17.00
2017-08-10T15:35:53.269Z,17.00
2017-08-10T15:38:21.704Z,16.80
2017-08-10T15:40:49.272Z,16.50
2017-08-10T15:43:16.865Z,16.10
2017-08-10T15:45:44.408Z,15.70
2017-08-10T15:48:12.839Z,15.10
2017-08-10T15:50:40.720Z,15.10
2017-08-10T15:53:08.258Z,14.80
2017-08-10T15:55:35.801Z,14.70
2017-08-10T15:58:03.473Z,14.70
2017-08-10T16:00:31.087Z,14.50
2017-08-10T16:02:58.652Z,14.70
2017-08-10T16:05:26.266Z,14.50
2017-08-10T16:07:53.921Z,14.40
2017-08-10T16:10:22.193Z,14.40
2017-08-10T16:12:49.832Z,14.20
2017-08-10T16:15:18.142Z,14.20
2017-08-10T16:17:45.728Z,14.10
2017-08-10T16:20:13.333Z,14.20
2017-08-10T16:22:40.918Z,14.20
2017-08-10T16:25:08.565Z,14.10
2017-08-10T16:27:36.129Z,14.00
2017-08-10T16:30:04.141Z,14.10
2017-08-10T16:32:31.804Z,14.00
2017-08-10T16:34:59.849Z,14.00
2017-08-10T16:37:27.515Z,13.80
2017-08-10T16:39:55.367Z,13.80
2017-08-10T16:42:23.025Z,13.70
2017-08-10T16:44:50.679Z,13.70
2017-08-10T16:47:18.371Z,13.80
2017-08-10T16:49:47.035Z,13.70
2017-08-10T16:52:14.728Z,13.70
2017-08-10T16:54:42.376Z,13.60
2017-08-10T16:57:10.010Z,13.60
2017-08-10T16:59:37.628Z,13.50
2017-08-10T17:02:06.069Z,13.60
2017-08-10T17:04:34.144Z,13.60
2017-08-10T17:07:02.504Z,13.50
2017-08-10T17:09:30.743Z,13.50
2017-08-10T17:11:58.465Z,13.40
2017-08-10T17:14:26.090Z,13.40
2017-08-10T17:16:54.523Z,13.40
2017-08-10T17:19:23.485Z,13.40
2017-08-10T17:21:51.053Z,13.40
2017-08-10T17:24:18.674Z,13.30
2017-08-10T17:26:47.041Z,13.20
2017-08-10T17:29:14.598Z,13.20
2017-08-10T17:31:42.181Z,13.20
2017-08-10T17:34:09.832Z,13.00
2017-08-10T17:36:37.405Z,12.90
2017-08-10T17:39:05.003Z,13.00
2017-08-10T17:41:32.822Z,12.90
2017-08-10T17:44:00.508Z,13.00
2017-08-10T17:46:28.203Z,12.90
2017-08-10T17:48:57.404Z,12.90
2017-08-10T17:51:25.065Z,12.90
2017-08-10T17:53:57.203Z,12.90
2017-08-10T17:56:29.392Z,13.00
2017-08-10T17:58:57.233Z,13.00
2017-08-10T18:01:24.902Z,13.20
2017-08-10T18:03:52.914Z,13.10
2017-08-10T18:06:21.833Z,13.10
2017-08-10T18:08:49.457Z,13.00
2017-08-10T18:11:17.144Z,12.90
2017-08-10T18:13:44.746Z,12.70
2017-08-10T18:16:12.334Z,12.70
2017-08-10T18:18:39.954Z,12.70
2017-08-10T18:21:07.549Z,12.70
2017-08-10T18:23:35.185Z,12.60
2017-08-10T18:26:04.478Z,12.50
2017-08-10T18:28:33.330Z,12.50
2017-08-10T18:31:00.890Z,12.50
2017-08-10T18:33:28.617Z,12.60
2017-08-10T18:35:56.388Z,12.60
2017-08-10T18:38:24.913Z,12.70
2017-08-10T18:40:52.594Z,12.70
2017-08-10T18:43:20.851Z,12.60
2017-08-10T18:45:48.557Z,12.70
2017-08-10T18:48:16.252Z,12.60
2017-08-10T18:50:45.547Z,12.70
2017-08-10T18:53:13.114Z,12.70
2017-08-10T18:55:40.835Z,12.80
2017-08-10T18:58:09.238Z,12.80
2017-08-10T19:00:36.884Z,12.90
2017-08-10T19:03:04.548Z,12.90
2017-08-10T19:05:32.220Z,13.00
2017-08-10T19:07:59.989Z,13.00
2017-08-10T19:10:27.705Z,13.00
2017-08-10T19:12:55.290Z,13.00
2017-08-10T19:15:22.834Z,12.90
2017-08-10T19:17:51.221Z,12.90
2017-08-10T19:20:19.844Z,12.90
2017-08-10T19:22:47.506Z,12.80
2017-08-10T19:25:16.977Z,12.80
2017-08-10T19:27:44.685Z,12.80
2017-08-10T19:30:12.329Z,12.80
2017-08-10T19:32:40.190Z,12.70
2017-08-10T19:35:09.134Z,12.80
2017-08-10T19:37:36.773Z,12.90
2017-08-10T19:40:04.401Z,12.80
2017-08-10T19:42:32.010Z,12.90
2017-08-10T19:45:00.022Z,12.80
2017-08-10T19:47:27.656Z,12.80
2017-08-10T19:49:55.345Z,12.80
2017-08-10T19:52:23.105Z,12.90
2017-08-10T19:54:51.326Z,12.90
2017-08-10T19:57:18.948Z,12.90
2017-08-10T19:59:46.655Z,12.80
2017-08-10T20:02:14.289Z,12.80
2017-08-10T20:04:41.930Z,12.80
2017-08-10T20:07:12.417Z,12.70
2017-08-10T20:09:40.004Z,12.70
2017-08-10T20:12:07.655Z,12.60
2017-08-10T20:14:35.196Z,12.70
2017-08-10T20:17:02.908Z,12.70
2017-08-10T20:19:31.491Z,12.60
2017-08-10T20:21:59.078Z,12.70
2017-08-10T20:24:26.698Z,12.70
2017-08-10T20:26:55.009Z,12.60
2017-08-10T20:29:22.601Z,12.60
2017-08-10T20:31:50.185Z,12.60
2017-08-10T20:34:17.792Z,12.60
2017-08-10T20:36:45.381Z,12.70
2017-08-10T20:39:13.132Z,12.70
2017-08-10T20:41:40.733Z,12.70
2017-08-10T20:44:09.140Z,12.70
2017-08-10T20:46:37.877Z,12.80
2017-08-10T20:49:05.422Z,12.80
2017-08-10T20:51:32.985Z,12.90
2017-08-10T20:54:00.569Z,12.90
2017-08-10T20:56:28.115Z,12.80
2017-08-10T20:58:55.697Z,12.80
2017-08-10T21:01:23.259Z,12.70
2017-08-10T21:03:50.893Z,12.70
2017-08-10T21:06:18.458Z,12.60
2017-08-10T21:08:46.249Z,12.70
2017-08-10T21:11:13.855Z,12.70
2017-08-10T21:13:43.324Z,12.70
2017-08-10T21:16:10.944Z,12.80
2017-08-10T21:18:38.557Z,12.70
2017-08-10T21:21:06.203Z,12.60
2017-08-10T21:23:34.587Z,12.80
2017-08-10T21:26:02.916Z,12.90
2017-08-10T21:28:30.452Z,12.90
2017-08-10T21:30:58.083Z,12.90
2017-08-10T21:33:25.638Z,13.00
2017-08-10T21:35:53.179Z,13.10
2017-08-10T21:38:20.768Z,12.90
2017-08-10T21:40:48.369Z,12.90
2017-08-10T21:43:16.201Z,12.80
2017-08-10T21:45:43.768Z,12.80
2017-08-10T21:48:11.844Z,12.90
2017-08-10T21:50:39.382Z,12.90
2017-08-10T21:53:07.417Z,12.90
2017-08-10T21:55:34.975Z,12.90
2017-08-10T21:58:02.518Z,12.80
2017-08-10T22:00:30.116Z,12.70
2017-08-10T22:02:57.657Z,12.50
2017-08-10T22:05:25.197Z,12.60
2017-08-10T22:07:52.769Z,12.70
2017-08-10T22:10:20.313Z,12.70
2017-08-10T22:12:47.865Z,12.70
2017-08-10T22:15:15.501Z,12.70
2017-08-10T22:17:43.061Z,12.60
2017-08-10T22:20:10.672Z,12.60
2017-08-10T22:22:38.326Z,12.70
2017-08-10T22:25:05.890Z,12.60
2017-08-10T22:27:33.435Z,12.70
2017-08-10T22:30:01.062Z,12.80
2017-08-10T22:32:28.701Z,12.80
2017-08-10T22:34:56.257Z,12.90
2017-08-10T22:37:23.883Z,12.70
2017-08-10T22:39:51.437Z,12.80
2017-08-10T22:42:18.977Z,12.70
2017-08-10T22:44:46.541Z,12.90
2017-08-10T22:47:14.861Z,12.90
2017-08-10T22:49:42.837Z,12.80
2017-08-10T22:52:10.413Z,13.00
2017-08-10T22:54:37.951Z,13.00
2017-08-10T22:57:05.497Z,13.00
2017-08-10T22:59:33.138Z,13.00
2017-08-10T23:02:00.690Z,13.00
2017-08-10T23:04:28.294Z,13.10
2017-08-10T23:06:55.896Z,13.00
2017-08-10T23:09:23.424Z,13.00
2017-08-10T23:11:51.046Z,13.00
2017-08-10T23:14:18.833Z,13.00
2017-08-10T23:16:46.382Z,13.00
2017-08-10T23:19:13.960Z,13.00
2017-08-10T23:21:41.696Z,12.80
2017-08-10T23:24:09.253Z,12.90
2017-08-10T23:26:36.895Z,13.00
2017-08-10T23:29:04.485Z,13.00
2017-08-10T23:31:32.020Z,12.90
2017-08-10T23:33:59.637Z,13.00
2017-08-10T23:36:27.246Z,12.90
2017-08-10T23:38:54.892Z,13.00
2017-08-10T23:41:23.195Z,12.90
2017-08-10T23:43:50.810Z,12.90
2017-08-10T23:46:18.349Z,12.90
2017-08-10T23:48:45.953Z,12.90
2017-08-10T23:51:13.841Z,12.90
2017-08-10T23:53:41.385Z,12.90
2017-08-10T23:56:09.006Z,12.90
2017-08-10T23:58:36.617Z,12.90
